sensor_id;sensor_type;location;lat;lon;timestamp;pressure;altitude;pressure_sealevel;temperature;humidity
58245;BME280;44550;43.864;25.986;2024-03-23T00:55:38;101228.31;;;6.82;90.60
58245;BME280;44550;43.864;25.986;2024-03-23T00:59:37;101246.28;;;7.05;90.21
58245;BME280;44550;43.864;25.986;2024-03-23T01:03:40;101240.97;;;7.00;89.31
58245;BME280;44550;43.864;25.986;2024-03-23T01:07:42;101246.59;;;6.30;93.51
58245;BME280;44550;43.864;25.986;2024-03-23T01:11:43;101245.56;;;5.99;96.12
58245;BME280;44550;43.864;25.986;2024-03-23T01:15:48;101230.97;;;5.77;97.92
58245;BME280;44550;43.864;25.986;2024-03-23T01:19:49;101244.38;;;5.89;98.10
58245;BME280;44550;43.864;25.986;2024-03-23T01:23:57;101237.66;;;6.49;95.51
58245;BME280;44550;43.864;25.986;2024-03-23T01:28:00;101239.53;;;7.12;90.50
58245;BME280;44550;43.864;25.986;2024-03-23T01:32:01;101237.78;;;7.11;88.75
58245;BME280;44550;43.864;25.986;2024-03-23T01:36:02;101244.19;;;6.63;90.93
58245;BME280;44550;43.864;25.986;2024-03-23T01:40:09;101227.44;;;6.55;91.28
58245;BME280;44550;43.864;25.986;2024-03-23T01:44:11;101230.88;;;6.52;91.24
58245;BME280;44550;43.864;25.986;2024-03-23T01:48:22;101220.25;;;6.75;90.59
58245;BME280;44550;43.864;25.986;2024-03-23T01:52:29;101239.03;;;6.93;89.39
58245;BME280;44550;43.864;25.986;2024-03-23T01:56:33;101226.78;;;6.89;88.67
58245;BME280;44550;43.864;25.986;2024-03-23T02:00:43;101209.28;;;6.28;91.72
58245;BME280;44550;43.864;25.986;2024-03-23T02:04:44;101225.81;;;6.30;91.98
58245;BME280;44550;43.864;25.986;2024-03-23T02:08:45;101227.13;;;6.17;93.34
58245;BME280;44550;43.864;25.986;2024-03-23T02:12:49;101230.31;;;5.83;95.48
58245;BME280;44550;43.864;25.986;2024-03-23T02:16:50;101225.72;;;5.76;96.19
58245;BME280;44550;43.864;25.986;2024-03-23T02:20:50;101190.09;;;5.70;95.57
58245;BME280;44550;43.864;25.986;2024-03-23T02:24:54;101229.28;;;5.79;96.08
58245;BME280;44550;43.864;25.986;2024-03-23T02:28:55;101203.00;;;6.48;92.45
58245;BME280;44550;43.864;25.986;2024-03-23T02:32:56;101221.31;;;6.81;89.58
58245;BME280;44550;43.864;25.986;2024-03-23T02:36:57;101206.59;;;6.80;89.01
58245;BME280;44550;43.864;25.986;2024-03-23T02:41:04;101210.41;;;6.93;87.06
58245;BME280;44550;43.864;25.986;2024-03-23T02:45:05;101226.78;;;6.89;88.02
58245;BME280;44550;43.864;25.986;2024-03-23T02:49:09;101219.84;;;6.61;89.89
58245;BME280;44550;43.864;25.986;2024-03-23T02:53:10;101227.34;;;6.52;91.17
58245;BME280;44550;43.864;25.986;2024-03-23T02:57:14;101229.53;;;6.11;95.15
58245;BME280;44550;43.864;25.986;2024-03-23T03:01:15;101199.72;;;5.74;96.56
58245;BME280;44550;43.864;25.986;2024-03-23T03:05:16;101167.50;;;5.42;97.87
58245;BME280;44550;43.864;25.986;2024-03-23T03:09:19;101220.69;;;5.31;100.00
58245;BME280;44550;43.864;25.986;2024-03-23T03:13:22;101219.53;;;5.23;100.00
58245;BME280;44550;43.864;25.986;2024-03-23T03:17:29;101202.63;;;4.86;100.00
58245;BME280;44550;43.864;25.986;2024-03-23T03:21:32;101224.22;;;4.86;100.00
58245;BME280;44550;43.864;25.986;2024-03-23T03:25:33;101200.38;;;5.19;100.00
58245;BME280;44550;43.864;25.986;2024-03-23T03:29:39;101228.00;;;5.67;100.00
58245;BME280;44550;43.864;25.986;2024-03-23T03:33:40;101219.59;;;5.74;100.00
58245;BME280;44550;43.864;25.986;2024-03-23T03:37:40;101207.94;;;5.13;100.00
58245;BME280;44550;43.864;25.986;2024-03-23T03:41:42;101212.78;;;4.57;100.00
58245;BME280;44550;43.864;25.986;2024-03-23T03:45:51;101210.56;;;4.23;100.00
58245;BME280;44550;43.864;25.986;2024-03-23T03:49:52;101210.63;;;4.24;100.00
58245;BME280;44550;43.864;25.986;2024-03-23T03:53:53;101205.66;;;4.52;100.00
58245;BME280;44550;43.864;25.986;2024-03-23T03:57:55;101209.88;;;4.72;100.00
58245;BME280;44550;43.864;25.986;2024-03-23T04:01:58;101207.41;;;4.98;100.00
58245;BME280;44550;43.864;25.986;2024-03-23T04:05:58;101205.75;;;5.24;100.00
58245;BME280;44550;43.864;25.986;2024-03-23T04:09:58;101143.09;;;4.87;100.00
58245;BME280;44550;43.864;25.986;2024-03-23T04:13:59;101188.16;;;5.15;100.00
58245;BME280;44550;43.864;25.986;2024-03-23T04:18:05;101200.88;;;5.09;100.00
58245;BME280;44550;43.864;25.986;2024-03-23T04:22:07;101192.13;;;5.05;100.00
58245;BME280;44550;43.864;25.986;2024-03-23T04:26:08;101188.88;;;5.11;100.00
58245;BME280;44550;43.864;25.986;2024-03-23T04:30:10;101201.50;;;5.50;100.00
58245;BME280;44550;43.864;25.986;2024-03-23T04:34:18;101194.75;;;5.55;100.00
58245;BME280;44550;43.864;25.986;2024-03-23T04:38:25;101207.09;;;5.62;100.00
58245;BME280;44550;43.864;25.986;2024-03-23T04:42:32;101188.19;;;5.66;100.00
58245;BME280;44550;43.864;25.986;2024-03-23T04:46:38;101205.13;;;5.80;100.00
58245;BME280;44550;43.864;25.986;2024-03-23T04:50:44;101194.47;;;5.97;100.00
58245;BME280;44550;43.864;25.986;2024-03-23T04:54:45;101207.34;;;6.21;98.82
58245;BME280;44550;43.864;25.986;2024-03-23T04:58:48;101178.78;;;6.21;96.65
58245;BME280;44550;43.864;25.986;2024-03-23T05:02:49;101132.59;;;5.85;96.04
58245;BME280;44550;43.864;25.986;2024-03-23T05:06:53;101210.75;;;6.47;96.32
58245;BME280;44550;43.864;25.986;2024-03-23T05:10:52;101209.63;;;6.96;95.07
58245;BME280;44550;43.864;25.986;2024-03-23T05:14:52;101200.97;;;7.27;93.49
58245;BME280;44550;43.864;25.986;2024-03-23T05:18:59;101201.56;;;7.48;92.55
58245;BME280;44550;43.864;25.986;2024-03-23T05:23:08;101202.97;;;8.04;89.09
58245;BME280;44550;43.864;25.986;2024-03-23T05:27:09;101199.31;;;8.32;86.01
58245;BME280;44550;43.864;25.986;2024-03-23T05:31:25;101202.09;;;8.38;83.94
58245;BME280;44550;43.864;25.986;2024-03-23T05:35:29;101177.84;;;8.42;83.52
58245;BME280;44550;43.864;25.986;2024-03-23T05:39:30;101197.88;;;8.84;82.23
58245;BME280;44550;43.864;25.986;2024-03-23T05:43:33;101204.56;;;9.12;79.22
58245;BME280;44550;43.864;25.986;2024-03-23T05:47:39;101194.47;;;9.30;77.89
58245;BME280;44550;43.864;25.986;2024-03-23T05:51:48;101197.06;;;9.30;75.46
58245;BME280;44550;43.864;25.986;2024-03-23T05:56:03;101198.00;;;8.88;76.63
58245;BME280;44550;43.864;25.986;2024-03-23T06:00:09;101125.59;;;7.98;78.53
58245;BME280;44550;43.864;25.986;2024-03-23T06:04:16;101193.72;;;8.53;77.78
58245;BME280;44550;43.864;25.986;2024-03-23T06:08:28;101146.91;;;8.18;78.89
58245;BME280;44550;43.864;25.986;2024-03-23T06:12:31;101189.31;;;8.49;80.16
58245;BME280;44550;43.864;25.986;2024-03-23T06:16:32;101190.69;;;8.74;78.93
58245;BME280;44550;43.864;25.986;2024-03-23T06:20:32;101193.28;;;8.72;77.26
58245;BME280;44550;43.864;25.986;2024-03-23T06:24:37;101154.56;;;8.50;77.23
58245;BME280;44550;43.864;25.986;2024-03-23T06:28:42;101200.13;;;9.08;77.32
58245;BME280;44550;43.864;25.986;2024-03-23T06:32:42;101197.06;;;9.30;81.70
58245;BME280;44550;43.864;25.986;2024-03-23T06:36:44;101194.69;;;9.41;82.80
58245;BME280;44550;43.864;25.986;2024-03-23T06:40:48;101195.34;;;9.78;81.56
58245;BME280;44550;43.864;25.986;2024-03-23T06:44:52;101180.72;;;10.41;74.63
58245;BME280;44550;43.864;25.986;2024-03-23T06:48:55;101179.16;;;11.23;68.86
58245;BME280;44550;43.864;25.986;2024-03-23T06:52:54;101178.56;;;11.49;65.54
58245;BME280;44550;43.864;25.986;2024-03-23T06:57:04;101175.53;;;12.01;63.77
58245;BME280;44550;43.864;25.986;2024-03-23T07:01:07;101173.31;;;12.56;61.59
58245;BME280;44550;43.864;25.986;2024-03-23T07:05:11;101126.09;;;12.59;59.50
58245;BME280;44550;43.864;25.986;2024-03-23T07:09:11;101166.50;;;13.01;57.55
58245;BME280;44550;43.864;25.986;2024-03-23T07:13:18;101141.91;;;12.74;61.62
58245;BME280;44550;43.864;25.986;2024-03-23T07:17:21;101164.75;;;13.00;61.24
58245;BME280;44550;43.864;25.986;2024-03-23T07:21:21;101154.03;;;12.49;64.45
58245;BME280;44550;43.864;25.986;2024-03-23T07:25:25;101147.06;;;12.56;65.09
58245;BME280;44550;43.864;25.986;2024-03-23T07:29:26;101123.16;;;12.02;67.57
58245;BME280;44550;43.864;25.986;2024-03-23T07:33:30;101101.47;;;12.29;66.77
58245;BME280;44550;43.864;25.986;2024-03-23T07:37:33;101123.25;;;12.17;66.57
58245;BME280;44550;43.864;25.986;2024-03-23T07:41:34;101121.66;;;12.42;66.24
58245;BME280;44550;43.864;25.986;2024-03-23T07:45:36;101150.00;;;13.29;61.81
58245;BME280;44550;43.864;25.986;2024-03-23T07:49:49;101147.44;;;13.65;59.73
58245;BME280;44550;43.864;25.986;2024-03-23T07:53:58;101122.91;;;13.69;57.48
58245;BME280;44550;43.864;25.986;2024-03-23T07:58:01;101145.66;;;13.77;56.04
58245;BME280;44550;43.864;25.986;2024-03-23T08:02:03;101147.44;;;13.61;56.34
58245;BME280;44550;43.864;25.986;2024-03-23T08:06:11;101124.63;;;13.42;54.93
58245;BME280;44550;43.864;25.986;2024-03-23T08:10:16;101143.03;;;13.90;54.29
58245;BME280;44550;43.864;25.986;2024-03-23T08:14:20;101129.91;;;13.80;53.38
58245;BME280;44550;43.864;25.986;2024-03-23T08:18:22;101135.19;;;13.71;54.65
58245;BME280;44550;43.864;25.986;2024-03-23T08:22:27;101086.00;;;14.34;53.47
58245;BME280;44550;43.864;25.986;2024-03-23T08:26:28;101122.78;;;14.59;51.29
58245;BME280;44550;43.864;25.986;2024-03-23T08:30:31;101120.91;;;14.93;51.69
58245;BME280;44550;43.864;25.986;2024-03-23T08:34:30;101117.88;;;15.53;50.22
58245;BME280;44550;43.864;25.986;2024-03-23T08:38:33;101075.44;;;15.85;48.67
58245;BME280;44550;43.864;25.986;2024-03-23T08:42:37;101118.22;;;16.15;47.07
58245;BME280;44550;43.864;25.986;2024-03-23T08:46:37;101090.31;;;15.92;47.43
58245;BME280;44550;43.864;25.986;2024-03-23T08:50:38;101062.25;;;15.87;47.07
58245;BME280;44550;43.864;25.986;2024-03-23T08:54:41;101105.91;;;16.17;46.28
58245;BME280;44550;43.864;25.986;2024-03-23T08:58:42;101104.41;;;15.93;46.31
58245;BME280;44550;43.864;25.986;2024-03-23T09:02:42;101099.78;;;16.13;46.08
58245;BME280;44550;43.864;25.986;2024-03-23T09:06:45;101056.19;;;15.76;45.58
58245;BME280;44550;43.864;25.986;2024-03-23T09:10:56;101062.47;;;16.45;44.82
58245;BME280;44550;43.864;25.986;2024-03-23T09:14:57;101075.28;;;16.78;44.03
58245;BME280;44550;43.864;25.986;2024-03-23T09:19:01;101079.38;;;17.00;43.67
58245;BME280;44550;43.864;25.986;2024-03-23T09:23:02;101074.94;;;17.04;43.19
58245;BME280;44550;43.864;25.986;2024-03-23T09:27:05;101077.63;;;17.01;42.92
58245;BME280;44550;43.864;25.986;2024-03-23T09:31:07;101067.88;;;17.04;41.40
58245;BME280;44550;43.864;25.986;2024-03-23T09:35:12;101001.50;;;16.65;39.66
58245;BME280;44550;43.864;25.986;2024-03-23T09:39:22;101031.38;;;16.67;38.37
58245;BME280;44550;43.864;25.986;2024-03-23T09:43:27;101016.84;;;17.02;38.31
58245;BME280;44550;43.864;25.986;2024-03-23T09:47:33;101039.53;;;17.14;38.54
58245;BME280;44550;43.864;25.986;2024-03-23T09:51:37;101005.13;;;16.57;37.13
58245;BME280;44550;43.864;25.986;2024-03-23T09:55:39;100986.19;;;16.92;36.58
58245;BME280;44550;43.864;25.986;2024-03-23T09:59:44;101006.88;;;17.18;36.24
58245;BME280;44550;43.864;25.986;2024-03-23T10:03:58;100994.03;;;16.95;35.82
58245;BME280;44550;43.864;25.986;2024-03-23T10:08:00;101005.84;;;17.28;35.67
58245;BME280;44550;43.864;25.986;2024-03-23T10:12:19;101002.75;;;17.56;35.48
58245;BME280;44550;43.864;25.986;2024-03-23T10:16:26;100990.81;;;17.83;34.69
58245;BME280;44550;43.864;25.986;2024-03-23T10:20:27;100965.78;;;17.51;35.62
58245;BME280;44550;43.864;25.986;2024-03-23T10:24:27;100974.66;;;17.98;34.63
58245;BME280;44550;43.864;25.986;2024-03-23T10:28:29;100938.31;;;18.06;34.61
58245;BME280;44550;43.864;25.986;2024-03-23T10:32:31;100947.91;;;18.12;33.64
58245;BME280;44550;43.864;25.986;2024-03-23T10:36:32;100953.69;;;18.29;33.14
58245;BME280;44550;43.864;25.986;2024-03-23T10:40:34;100951.78;;;18.38;32.32
58245;BME280;44550;43.864;25.986;2024-03-23T10:44:35;100933.56;;;18.22;32.69
58245;BME280;44550;43.864;25.986;2024-03-23T10:48:41;100866.91;;;18.05;32.82
58245;BME280;44550;43.864;25.986;2024-03-23T10:52:45;100919.09;;;18.77;32.49
58245;BME280;44550;43.864;25.986;2024-03-23T10:56:46;100865.97;;;18.82;31.75
58245;BME280;44550;43.864;25.986;2024-03-23T11:00:49;100908.25;;;18.87;31.57
58245;BME280;44550;43.864;25.986;2024-03-23T11:04:54;100868.78;;;18.76;32.25
58245;BME280;44550;43.864;25.986;2024-03-23T11:08:54;100874.44;;;18.96;31.09
58245;BME280;44550;43.864;25.986;2024-03-23T11:12:55;100860.22;;;19.33;30.80
58245;BME280;44550;43.864;25.986;2024-03-23T11:17:09;100863.38;;;19.47;30.60
58245;BME280;44550;43.864;25.986;2024-03-23T11:21:51;100859.00;;;19.78;29.38
58245;BME280;44550;43.864;25.986;2024-03-23T11:25:55;100865.44;;;19.99;29.12
58245;BME280;44550;43.864;25.986;2024-03-23T11:30:10;100805.56;;;19.59;28.86
58245;BME280;44550;43.864;25.986;2024-03-23T11:34:15;100835.22;;;19.73;29.14
58245;BME280;44550;43.864;25.986;2024-03-23T11:38:21;100826.22;;;19.80;28.07
58245;BME280;44550;43.864;25.986;2024-03-23T11:42:21;100818.81;;;19.60;28.82
58245;BME280;44550;43.864;25.986;2024-03-23T11:46:24;100829.16;;;19.69;28.38
58245;BME280;44550;43.864;25.986;2024-03-23T11:50:33;100806.53;;;19.87;28.47
58245;BME280;44550;43.864;25.986;2024-03-23T11:54:40;100764.19;;;19.83;27.38
58245;BME280;44550;43.864;25.986;2024-03-23T11:58:42;100803.97;;;19.84;28.16
58245;BME280;44550;43.864;25.986;2024-03-23T12:02:45;100795.81;;;19.90;27.78
58245;BME280;44550;43.864;25.986;2024-03-23T12:06:47;100785.63;;;20.05;27.65
58245;BME280;44550;43.864;25.986;2024-03-23T12:10:52;100761.75;;;20.31;27.21
58245;BME280;44550;43.864;25.986;2024-03-23T12:15:02;100777.53;;;20.36;27.21
58245;BME280;44550;43.864;25.986;2024-03-23T12:19:05;100772.78;;;20.19;28.01
58245;BME280;44550;43.864;25.986;2024-03-23T12:23:12;100760.44;;;20.71;27.31
58245;BME280;44550;43.864;25.986;2024-03-23T12:27:19;100748.28;;;20.64;27.31
58245;BME280;44550;43.864;25.986;2024-03-23T12:31:24;100717.47;;;20.32;27.88
58245;BME280;44550;43.864;25.986;2024-03-23T12:35:25;100737.16;;;20.78;27.75
58245;BME280;44550;43.864;25.986;2024-03-23T12:39:29;100723.38;;;21.17;26.75
58245;BME280;44550;43.864;25.986;2024-03-23T12:43:35;100729.03;;;20.82;26.69
58245;BME280;44550;43.864;25.986;2024-03-23T12:47:40;100705.22;;;20.79;26.78
58245;BME280;44550;43.864;25.986;2024-03-23T12:51:46;100709.94;;;20.71;26.73
58245;BME280;44550;43.864;25.986;2024-03-23T12:55:49;100703.06;;;20.91;27.05
58245;BME280;44550;43.864;25.986;2024-03-23T12:59:59;100695.53;;;21.49;26.91
58245;BME280;44550;43.864;25.986;2024-03-23T13:04:04;100697.44;;;21.22;26.55
58245;BME280;44550;43.864;25.986;2024-03-23T13:08:18;100678.28;;;21.37;26.71
58245;BME280;44550;43.864;25.986;2024-03-23T13:12:26;100685.91;;;20.99;27.50
58245;BME280;44550;43.864;25.986;2024-03-23T13:16:36;100681.34;;;21.26;26.56
58245;BME280;44550;43.864;25.986;2024-03-23T13:20:43;100653.59;;;21.10;26.45
58245;BME280;44550;43.864;25.986;2024-03-23T13:25:02;100648.19;;;20.64;27.05
58245;BME280;44550;43.864;25.986;2024-03-23T13:29:08;100649.13;;;20.63;27.25
58245;BME280;44550;43.864;25.986;2024-03-23T13:33:21;100649.13;;;20.87;26.82
58245;BME280;44550;43.864;25.986;2024-03-23T13:37:26;100655.72;;;21.24;26.27
58245;BME280;44550;43.864;25.986;2024-03-23T13:41:41;100638.03;;;21.46;26.29
58245;BME280;44550;43.864;25.986;2024-03-23T13:45:44;100644.38;;;21.86;25.65
58245;BME280;44550;43.864;25.986;2024-03-23T13:50:18;100635.88;;;21.98;25.61
58245;BME280;44550;43.864;25.986;2024-03-23T13:54:32;100588.97;;;21.53;26.19
58245;BME280;44550;43.864;25.986;2024-03-23T13:58:51;100614.00;;;21.70;25.89
58245;BME280;44550;43.864;25.986;2024-03-23T14:03:14;100626.41;;;21.91;25.59
58245;BME280;44550;43.864;25.986;2024-03-23T14:07:19;100613.75;;;22.18;25.50
58245;BME280;44550;43.864;25.986;2024-03-23T14:11:36;100595.38;;;21.70;25.99
58245;BME280;44550;43.864;25.986;2024-03-23T14:16:06;100561.56;;;21.72;25.72
58245;BME280;44550;43.864;25.986;2024-03-23T14:20:26;100558.75;;;21.10;26.07
58245;BME280;44550;43.864;25.986;2024-03-23T14:24:39;100599.84;;;21.02;26.44
58245;BME280;44550;43.864;25.986;2024-03-23T14:28:47;100598.03;;;21.02;26.60
58245;BME280;44550;43.864;25.986;2024-03-23T14:32:53;100575.28;;;20.95;26.21
58245;BME280;44550;43.864;25.986;2024-03-23T14:37:17;100594.38;;;20.83;26.27
58245;BME280;44550;43.864;25.986;2024-03-23T14:41:22;100556.91;;;21.13;26.29
58245;BME280;44550;43.864;25.986;2024-03-23T14:45:26;100586.72;;;21.65;25.64
58245;BME280;44550;43.864;25.986;2024-03-23T14:49:28;100574.97;;;21.91;25.44
58245;BME280;44550;43.864;25.986;2024-03-23T14:53:31;100560.41;;;21.99;25.28
58245;BME280;44550;43.864;25.986;2024-03-23T14:57:37;100567.59;;;22.38;24.89
58245;BME280;44550;43.864;25.986;2024-03-23T15:01:46;100521.13;;;22.25;24.54
58245;BME280;44550;43.864;25.986;2024-03-23T15:05:55;100561.88;;;22.66;24.18
58245;BME280;44550;43.864;25.986;2024-03-23T15:10:04;100565.19;;;21.91;24.67
58245;BME280;44550;43.864;25.986;2024-03-23T15:14:12;100542.53;;;21.61;25.00
58245;BME280;44550;43.864;25.986;2024-03-23T15:18:29;100566.06;;;21.49;24.92
58245;BME280;44550;43.864;25.986;2024-03-23T15:22:46;100555.16;;;21.55;25.12
58245;BME280;44550;43.864;25.986;2024-03-23T15:31:14;100545.94;;;21.85;24.56
58245;BME280;44550;43.864;25.986;2024-03-23T15:35:36;100540.41;;;21.69;24.93
58245;BME280;44550;43.864;25.986;2024-03-23T15:39:46;100531.22;;;21.33;25.42
58245;BME280;44550;43.864;25.986;2024-03-23T15:43:52;100541.69;;;21.60;25.38
58245;BME280;44550;43.864;25.986;2024-03-23T15:48:16;100542.03;;;21.73;25.28
58245;BME280;44550;43.864;25.986;2024-03-23T15:52:20;100542.16;;;21.70;25.20
58245;BME280;44550;43.864;25.986;2024-03-23T15:56:25;100542.28;;;21.87;25.23
58245;BME280;44550;43.864;25.986;2024-03-23T16:00:27;100534.44;;;21.84;25.23
58245;BME280;44550;43.864;25.986;2024-03-23T16:04:37;100529.44;;;21.76;25.16
58245;BME280;44550;43.864;25.986;2024-03-23T16:08:39;100528.22;;;21.43;25.58
58245;BME280;44550;43.864;25.986;2024-03-23T16:12:39;100499.91;;;21.18;25.78
58245;BME280;44550;43.864;25.986;2024-03-23T16:16:44;100472.75;;;20.90;26.02
58245;BME280;44550;43.864;25.986;2024-03-23T16:20:54;100479.91;;;20.87;26.12
58245;BME280;44550;43.864;25.986;2024-03-23T16:25:06;100501.88;;;20.93;26.10
58245;BME280;44550;43.864;25.986;2024-03-23T16:29:18;100509.97;;;20.90;26.29
58245;BME280;44550;43.864;25.986;2024-03-23T16:33:28;100475.16;;;20.50;26.58
58245;BME280;44550;43.864;25.986;2024-03-23T16:37:36;100507.13;;;20.47;26.92
58245;BME280;44550;43.864;25.986;2024-03-23T16:42:06;100501.94;;;20.44;27.10
58245;BME280;44550;43.864;25.986;2024-03-23T16:46:13;100501.66;;;20.52;27.13
58245;BME280;44550;43.864;25.986;2024-03-23T16:50:23;100499.88;;;20.52;27.48
58245;BME280;44550;43.864;25.986;2024-03-23T16:54:56;100490.38;;;20.22;28.50
58245;BME280;44550;43.864;25.986;2024-03-23T16:59:30;100500.22;;;19.94;29.73
58245;BME280;44550;43.864;25.986;2024-03-23T17:03:31;100499.50;;;19.10;30.71
58245;BME280;44550;43.864;25.986;2024-03-23T17:07:34;100496.69;;;18.58;31.49
58245;BME280;44550;43.864;25.986;2024-03-23T17:11:37;100508.56;;;18.14;32.54
58245;BME280;44550;43.864;25.986;2024-03-23T17:15:46;100503.03;;;17.90;33.37
58245;BME280;44550;43.864;25.986;2024-03-23T17:19:49;100499.59;;;17.87;33.47
58245;BME280;44550;43.864;25.986;2024-03-23T17:23:54;100507.47;;;17.54;34.17
58245;BME280;44550;43.864;25.986;2024-03-23T17:27:57;100503.50;;;17.00;34.91
58245;BME280;44550;43.864;25.986;2024-03-23T17:31:58;100502.41;;;16.70;35.63
58245;BME280;44550;43.864;25.986;2024-03-23T17:36:12;100501.13;;;16.49;36.42
58245;BME280;44550;43.864;25.986;2024-03-23T17:40:25;100504.81;;;16.39;36.84
58245;BME280;44550;43.864;25.986;2024-03-23T17:44:28;100497.78;;;15.96;37.60
58245;BME280;44550;43.864;25.986;2024-03-23T17:48:32;100497.25;;;15.77;38.20
58245;BME280;44550;43.864;25.986;2024-03-23T17:52:35;100494.78;;;15.69;38.73
58245;BME280;44550;43.864;25.986;2024-03-23T17:56:39;100493.94;;;15.67;38.95
58245;BME280;44550;43.864;25.986;2024-03-23T18:00:42;100480.88;;;15.60;39.19
58245;BME280;44550;43.864;25.986;2024-03-23T18:04:46;100489.84;;;15.48;39.37
58245;BME280;44550;43.864;25.986;2024-03-23T18:08:46;100486.47;;;15.40;39.57
58245;BME280;44550;43.864;25.986;2024-03-23T18:12:47;100490.84;;;15.39;40.20
58245;BME280;44550;43.864;25.986;2024-03-23T18:16:53;100483.13;;;15.30;40.34
58245;BME280;44550;43.864;25.986;2024-03-23T18:20:53;100478.84;;;15.23;40.42
58245;BME280;44550;43.864;25.986;2024-03-23T18:25:00;100473.97;;;14.98;40.58
58245;BME280;44550;43.864;25.986;2024-03-23T18:29:04;100477.69;;;14.87;41.07
58245;BME280;44550;43.864;25.986;2024-03-23T18:33:12;100476.28;;;14.60;41.57
58245;BME280;44550;43.864;25.986;2024-03-23T18:37:17;100471.31;;;14.37;41.95
58245;BME280;44550;43.864;25.986;2024-03-23T18:41:26;100453.25;;;14.09;42.31
58245;BME280;44550;43.864;25.986;2024-03-23T18:45:30;100454.16;;;14.08;42.93
58245;BME280;44550;43.864;25.986;2024-03-23T18:49:37;100468.13;;;14.10;42.89
58245;BME280;44550;43.864;25.986;2024-03-23T18:53:40;100465.75;;;13.89;43.27
58245;BME280;44550;43.864;25.986;2024-03-23T18:57:48;100394.56;;;13.31;42.36
58245;BME280;44550;43.864;25.986;2024-03-23T19:01:52;100454.66;;;13.60;42.16
58245;BME280;44550;43.864;25.986;2024-03-23T19:05:56;100454.69;;;13.59;42.08
58245;BME280;44550;43.864;25.986;2024-03-23T19:09:57;100448.53;;;13.60;41.78
58245;BME280;44550;43.864;25.986;2024-03-23T19:13:57;100429.59;;;13.27;41.24
58245;BME280;44550;43.864;25.986;2024-03-23T19:18:03;100458.31;;;13.44;41.00
58245;BME280;44550;43.864;25.986;2024-03-23T19:22:08;100453.88;;;13.52;40.20
58245;BME280;44550;43.864;25.986;2024-03-23T19:26:09;100442.41;;;13.61;39.64
58245;BME280;44550;43.864;25.986;2024-03-23T19:30:12;100442.31;;;13.69;39.47
58245;BME280;44550;43.864;25.986;2024-03-23T19:34:17;100441.31;;;13.80;39.21
58245;BME280;44550;43.864;25.986;2024-03-23T19:38:24;100443.22;;;13.68;39.51
58245;BME280;44550;43.864;25.986;2024-03-23T19:42:25;100433.72;;;13.54;39.98
58245;BME280;44550;43.864;25.986;2024-03-23T19:46:27;100429.31;;;13.58;40.21
58245;BME280;44550;43.864;25.986;2024-03-23T19:50:28;100410.34;;;13.28;40.98
58245;BME280;44550;43.864;25.986;2024-03-23T19:54:39;100427.00;;;13.20;41.64
58245;BME280;44550;43.864;25.986;2024-03-23T19:58:45;100426.31;;;12.98;42.31
58245;BME280;44550;43.864;25.986;2024-03-23T20:02:45;100427.28;;;12.86;42.69
58245;BME280;44550;43.864;25.986;2024-03-23T20:06:56;100417.72;;;12.77;42.67
58245;BME280;44550;43.864;25.986;2024-03-23T20:11:05;100416.84;;;12.80;42.44
58245;BME280;44550;43.864;25.986;2024-03-23T20:15:07;100378.41;;;12.71;42.11
58245;BME280;44550;43.864;25.986;2024-03-23T20:19:10;100387.91;;;12.89;41.71
58245;BME280;44550;43.864;25.986;2024-03-23T20:23:11;100408.59;;;13.23;41.15
58245;BME280;44550;43.864;25.986;2024-03-23T20:27:14;100415.34;;;13.53;40.64
58245;BME280;44550;43.864;25.986;2024-03-23T20:31:29;100409.59;;;13.97;39.48
58245;BME280;44550;43.864;25.986;2024-03-23T20:35:48;100397.47;;;13.85;39.32
58245;BME280;44550;43.864;25.986;2024-03-23T20:39:48;100400.41;;;13.58;39.93
58245;BME280;44550;43.864;25.986;2024-03-23T20:43:55;100395.31;;;13.43;40.43
58245;BME280;44550;43.864;25.986;2024-03-23T20:47:55;100390.25;;;13.26;40.75
58245;BME280;44550;43.864;25.986;2024-03-23T20:51:57;100390.34;;;13.10;41.15
58245;BME280;44550;43.864;25.986;2024-03-23T20:56:03;100380.84;;;12.97;41.48
58245;BME280;44550;43.864;25.986;2024-03-23T21:00:13;100386.16;;;12.88;41.79
58245;BME280;44550;43.864;25.986;2024-03-23T21:04:14;100388.78;;;12.89;41.90
58245;BME280;44550;43.864;25.986;2024-03-23T21:08:25;100384.47;;;12.81;42.30
58245;BME280;44550;43.864;25.986;2024-03-23T21:12:28;100374.91;;;12.74;42.62
58245;BME280;44550;43.864;25.986;2024-03-23T21:16:34;100372.25;;;12.78;42.64
58245;BME280;44550;43.864;25.986;2024-03-23T21:20:38;100366.28;;;12.58;43.19
58245;BME280;44550;43.864;25.986;2024-03-23T21:24:43;100371.59;;;12.52;43.37
58245;BME280;44550;43.864;25.986;2024-03-23T21:28:44;100357.69;;;12.39;43.76
58245;BME280;44550;43.864;25.986;2024-03-23T21:32:51;100358.56;;;12.38;44.01
58245;BME280;44550;43.864;25.986;2024-03-23T21:36:52;100352.53;;;12.27;44.22
58245;BME280;44550;43.864;25.986;2024-03-23T21:40:54;100345.66;;;12.09;44.69
58245;BME280;44550;43.864;25.986;2024-03-23T21:45:01;100350.91;;;12.04;44.99
58245;BME280;44550;43.864;25.986;2024-03-23T21:49:06;100342.22;;;11.93;45.39
58245;BME280;44550;43.864;25.986;2024-03-23T21:53:06;100339.63;;;11.81;45.61
58245;BME280;44550;43.864;25.986;2024-03-23T21:57:07;100339.63;;;11.77;45.84
58245;BME280;44550;43.864;25.986;2024-03-23T22:01:10;100336.19;;;11.68;46.04
58245;BME280;44550;43.864;25.986;2024-03-23T22:05:13;100332.75;;;11.60;46.22
58245;BME280;44550;43.864;25.986;2024-03-23T22:09:14;100334.50;;;11.55;46.30